Latest Weather Observations for Sydney - Observatory Hill

IDN60901

Issued at 1:02 pm EDT Monday 30 November 2020 (issued every 10 minutes, with the page automatically refreshed every 10 minutes)

About weather observations | Map of Sydney area stations | Latest observations for Sydney area | Other Formats
Station Details ID: 066214 Name: SYDNEY (OBSERVATORY HILL) Lat: -33.86 Lon: 151.20 Height: 43.37 m
Data from the previous 72 hours. | See also: Recent months at Sydney - Observatory Hill

* Apparent temperature (App Temp) for Sydney - Observatory Hill is calculated using temperature observations collected at Sydney - Observatory Hill and wind observations collected at Fort Denison, as wind observations are not currently provided for Sydney - Observatory Hill.

Date/Time
EDT
Temp
°C
App
Temp
°C
Dew
Point
°C
Rel
Hum
%
Delta-T
°C
Wind Press
QNH
hPa
Press
MSL
hPa
Rain since
9am
mm
Dir  Spd
km/h
Gust
km/h
Spd
kts
Gust
kts
30/01:00pm 27.0 26.2 16.0 51 6.8 ESE 15 - 8 - 1017.4 1017.3 0.0
30/12:30pm 26.1 25.1 15.5 52 6.4 ESE 15 - 8 - 1017.7 1017.6 0.0
30/12:00pm 25.2 24.3 14.9 52 6.2 ESE 13 - 7 - 1017.8 1017.7 0.0
30/11:30am 23.6 22.8 14.0 55 5.6 ESE 11 - 6 - 1017.9 1017.8 0.0
30/11:00am 23.1 22.2 13.6 55 5.5 ESE 11 - 6 - 1018.1 1018.0 0.0
30/10:30am 22.9 22.2 14.2 58 5.1 ESE 11 - 6 - 1018.3 1018.2 0.0
30/10:00am 21.9 21.0 13.8 60 4.7 SE 11 - 6 - 1018.3 1018.2 0.0
30/09:30am 21.9 21.0 14.8 64 4.2 SSE 13 - 7 - 1018.3 1018.2 0.0
30/09:00am 20.7 19.4 13.6 64 4.1 SSE 13 - 7 - 1018.3 1018.2 0.0
30/08:30am 20.6 19.7 13.8 65 3.9 SSE 11 - 6 - 1018.2 1018.1 0.0
30/08:00am 19.9 18.4 13.1 65 3.9 SSE 13 - 7 - 1017.9 1017.8 0.0
30/07:30am 19.6 16.9 12.8 65 3.8 SSE 19 - 10 - 1017.6 1017.5 0.0
30/07:00am 19.3 17.0 13.0 67 3.6 SSE 17 - 9 - 1017.3 1017.2 0.0
30/06:30am 19.0 16.7 13.0 68 3.4 SSE 17 - 9 - 1017.0 1016.9 0.0
30/06:00am 18.8 15.9 13.0 69 3.3 SSE 20 - 11 - 1016.8 1016.7 0.0
30/05:30am 18.8 16.1 12.8 68 3.4 SSE 19 - 10 - 1016.4 1016.3 0.0
30/05:00am 18.8 15.6 13.0 69 3.3 SE 22 - 12 - 1016.0 1015.9 0.0
30/04:30am 18.8 15.1 12.8 68 3.4 SSE 24 - 13 - 1015.8 1015.7 0.0
30/04:00am 18.9 15.5 12.6 67 3.5 SSE 22 - 12 - 1015.7 1015.6 0.0
30/03:30am 19.0 14.9 12.7 67 3.5 SSE 26 - 14 - 1015.6 1015.5 0.0
30/03:00am 19.1 15.7 12.6 66 3.6 SSE 22 - 12 - 1015.6 1015.5 0.0
30/02:30am 19.2 16.7 13.4 69 3.3 SSE 19 - 10 - 1015.5 1015.4 0.0
30/02:00am 19.5 16.2 12.8 65 3.8 SSE 22 - 12 - 1015.8 1015.7 0.0
30/01:30am 19.7 16.9 13.2 66 3.7 SSE 20 - 11 - 1015.8 1015.7 0.0
30/01:00am 19.8 17.1 13.0 65 3.9 SE 19 - 10 - 1015.6 1015.5 0.0
30/12:30am 19.7 16.4 12.9 65 3.8 SSE 22 - 12 - 1015.5 1015.4 0.0
30/12:00am 19.8 16.7 13.3 66 3.7 SE 22 - 12 - 1015.3 1015.2 0.0
 
Date/Time
EDT
Temp
°C
App
Temp
°C
Dew
Point
°C
Rel
Hum
%
Delta-T
°C
Wind Press
QNH
hPa
Press
MSL
hPa
Rain since
9am
mm
Dir  Spd
km/h
Gust
km/h
Spd
kts
Gust
kts
29/11:30pm 19.9 16.3 12.9 64 4.0 SSE 24 - 13 - 1014.9 1014.7 0.0
29/11:00pm 20.2 15.4 12.9 63 4.1 SSE 30 - 16 - 1014.6 1014.4 0.0
29/10:30pm 20.3 16.6 12.8 62 4.2 SSE 24 - 13 - 1014.1 1013.9 0.0
29/10:00pm 20.5 16.7 13.5 64 4.0 SSE 26 - 14 - 1013.5 1013.3 0.0
29/09:30pm 20.7 15.7 13.4 63 4.2 SSE 32 - 17 - 1012.5 1012.3 0.0
29/09:00pm 21.0 16.1 13.7 63 4.2 SSE 32 - 17 - 1011.5 1011.3 0.0
29/08:30pm 21.4 17.2 14.6 65 4.0 SE 30 - 16 - 1010.6 1010.4 0.0
29/08:00pm 21.7 17.9 14.6 64 4.2 SSE 28 - 15 - 1009.9 1009.7 0.0
29/07:30pm 22.1 17.8 15.5 66 3.9 SSE 32 - 17 - 1008.7 1008.6 0.0
29/07:00pm 22.5 19.2 16.1 67 3.9 SSE 28 - 15 - 1007.7 1007.6 0.0
29/06:30pm 23.3 22.0 17.3 69 3.7 SE 20 - 11 - 1006.2 1006.1 0.0
29/06:00pm 24.5 21.2 17.0 63 4.7 SE 30 - 16 - 1004.4 1004.3 0.0
29/05:50pm 26.0 - 16.0 54 6.1 - - - - - 1004.2 1004.1 0.0
29/05:30pm 31.3 24.4 14.0 35 10.5 SSE 43 - 23 - 1002.8 1002.7 0.0
29/05:00pm 34.7 34.1 14.6 30 12.5 WSW 11 - 6 - 1001.5 1001.4 0.0
29/04:58pm 34.6 - 14.5 30 12.4 - - - - - 1001.4 1001.3 0.0
29/04:30pm 34.9 32.6 14.7 29 12.5 WNW 20 - 11 - 999.4 999.3 0.0
29/04:00pm 35.1 28.7 14.4 29 12.9 NW 41 - 22 - 998.9 998.8 0.0
29/03:30pm 36.6 29.7 14.0 26 14.0 NW 43 - 23 - 998.5 998.4 0.0
29/03:00pm 38.4 30.2 12.9 22 15.7 WNW 48 - 26 - 998.7 998.6 0.0
29/02:30pm 39.4 32.6 13.0 21 16.2 WNW 41 - 22 - 998.0 997.9 0.0
29/02:00pm 39.3 31.5 12.9 20 16.3 WNW 46 - 25 - 998.0 997.9 0.0
29/01:30pm 40.2 33.2 13.7 21 16.5 WNW 43 - 23 - 997.8 997.7 0.0
29/01:00pm 38.9 30.8 13.3 22 15.9 NW 48 - 26 - 998.0 997.9 0.0
29/12:30pm 38.7 31.0 13.2 22 15.7 NW 46 - 25 - 998.1 998.0 0.0
29/12:00pm 38.1 31.0 13.3 22 15.3 NW 43 - 23 - 998.6 998.5 0.0
29/11:30am 37.3 29.8 12.0 22 15.2 NW 43 - 23 - 999.0 998.9 0.0
29/11:00am 36.0 28.9 12.3 24 14.3 NW 41 - 22 - 999.5 999.4 0.0
29/10:30am 35.0 29.4 12.0 25 13.7 NW 33 - 18 - 999.9 999.8 0.0
29/10:00am 33.9 29.7 13.4 29 12.5 NW 28 - 15 - 1000.1 1000.0 0.0
29/09:30am 32.4 30.4 15.0 35 10.8 NW 19 - 10 - 1000.6 1000.5 0.0
29/09:00am 31.2 28.7 15.2 38 9.9 NW 22 - 12 - 1001.1 1001.0 0.0
29/08:30am 30.5 28.5 15.0 39 9.5 WNW 19 - 10 - 1000.9 1000.8 0.0
29/08:00am 29.8 29.2 14.7 39 9.2 WNW 11 - 6 - 1001.0 1000.9 0.0
29/07:30am 29.5 27.3 14.5 40 9.1 NW 19 - 10 - 1001.1 1001.0 0.0
29/07:00am 29.6 27.5 14.6 40 9.2 NW 19 - 10 - 1001.2 1001.1 0.0
29/06:30am 29.9 27.5 14.4 38 9.4 NW 20 - 11 - 1001.3 1001.2 0.0
29/06:00am 30.2 26.6 14.3 38 9.7 NW 26 - 14 - 1001.2 1001.1 0.0
29/05:30am 30.2 26.8 14.7 39 9.5 NW 26 - 14 - 1001.2 1001.1 0.0
29/05:00am 30.2 24.8 15.1 40 9.3 NNW 37 - 20 - 1000.8 1000.7 0.0
29/04:30am 30.1 24.6 15.8 42 8.9 NNW 39 - 21 - 1001.3 1001.2 0.0
29/04:00am 29.9 24.2 15.2 41 9.1 NNW 39 - 21 - 1002.4 1002.3 0.0
29/03:30am 29.1 26.5 16.0 45 8.1 NW 24 - 13 - 1003.0 1002.9 0.0
29/03:00am 29.4 25.9 15.5 43 8.6 NNW 28 - 15 - 1002.7 1002.6 0.0
29/02:30am 27.9 26.8 17.7 53 6.5 NNW 20 - 11 - 1004.0 1003.9 0.0
29/02:00am 25.5 26.5 19.4 69 3.9 WNW 13 - 7 - 1005.4 1005.3 0.0
29/01:30am 25.6 26.3 18.8 66 4.3 W 13 - 7 - 1006.0 1005.9 0.0
29/01:00am 25.4 25.7 19.5 70 3.8 W 17 - 9 - 1007.0 1006.9 0.0
29/12:30am 26.4 28.0 18.3 61 5.1 SW 7 - 4 - 1007.2 1007.1 0.0
29/12:00am 26.1 24.1 18.2 61 5.0 S 26 - 14 - 1006.9 1006.8 0.0
 
Date/Time
EDT
Temp
°C
App
Temp
°C
Dew
Point
°C
Rel
Hum
%
Delta-T
°C
Wind Press
QNH
hPa
Press
MSL
hPa
Rain since
9am
mm
Dir  Spd
km/h
Gust
km/h
Spd
kts
Gust
kts
28/11:30pm 28.7 26.0 17.6 51 7.0 S 28 - 15 - 1005.9 1005.8 0.0
28/11:00pm 30.1 30.2 16.5 44 8.5 ESE 11 - 6 - 1004.8 1004.7 0.0
28/10:30pm 30.1 31.4 17.2 46 8.2 ESE 6 - 3 - 1004.5 1004.4 0.0
28/10:00pm 29.4 31.3 17.6 49 7.5 SSE 4 - 2 - 1004.6 1004.5 0.0
28/09:30pm 28.4 30.2 19.6 59 5.7 SE 9 - 5 - 1004.6 1004.5 0.0
28/09:00pm 27.7 29.6 19.8 62 5.2 ESE 9 - 5 - 1004.8 1004.7 0.0
28/08:30pm 27.7 29.3 19.2 60 5.5 ESE 9 - 5 - 1004.6 1004.5 0.0
28/08:00pm 28.7 30.9 19.3 56 6.1 ESE 6 - 3 - 1004.7 1004.6 0.0
28/07:30pm 28.7 30.3 19.1 56 6.2 E 9 - 5 - 1004.5 1004.4 0.0
28/07:23pm 29.1 - 18.5 52 6.8 - - - - - 1004.4 1004.3 0.0
28/07:00pm 34.1 33.2 16.9 36 11.0 E 17 - 9 - 1004.2 1004.1 0.0
28/06:30pm 37.2 36.0 13.9 25 14.4 NNW 13 - 7 - 1004.0 1003.9 0.0
28/06:00pm 37.7 33.7 13.0 23 15.2 NNW 26 - 14 - 1003.9 1003.8 0.0
28/05:30pm 38.7 34.6 13.8 22 15.5 NNW 28 - 15 - 1004.0 1003.9 0.0
28/05:00pm 38.9 35.4 13.3 22 15.8 NW 24 - 13 - 1004.4 1004.3 0.0
28/04:30pm 38.7 33.7 10.9 19 16.6 NW 28 - 15 - 1004.6 1004.5 0.0
28/04:00pm 39.6 35.8 12.4 20 16.7 NW 24 - 13 - 1004.8 1004.7 0.0
28/03:30pm 39.3 34.9 12.9 20 16.2 NNW 28 - 15 - 1005.2 1005.1 0.0
28/03:00pm 40.8 37.7 13.4 20 17.1 NW 22 - 12 - 1005.4 1005.3 0.0
28/02:30pm 39.8 36.2 14.1 22 16.1 WNW 26 - 14 - 1005.9 1005.8 0.0
28/02:00pm 39.5 35.2 13.1 21 16.3 NW 28 - 15 - 1006.2 1006.1 0.0
28/01:30pm 39.2 37.2 14.9 23 15.3 NW 19 - 10 - 1006.5 1006.4 0.0
28/01:00pm 39.2 36.9 18.4 29 13.8 NW 28 - 15 - 1007.1 1007.0 0.0
28/12:30pm 38.0 35.8 16.9 29 13.6 NNW 24 - 13 - 1007.5 1007.4 0.0
28/12:00pm 37.5 35.5 16.4 28 13.5 NW 22 - 12 - 1007.7 1007.6 0.0
28/11:30am 36.6 35.7 18.2 34 12.1 NW 20 - 11 - 1008.0 1007.9 0.0
28/11:00am 35.2 34.2 17.9 36 11.3 NW 20 - 11 - 1008.3 1008.2 0.0
28/10:30am 34.7 33.6 18.7 38 10.5 NW 22 - 12 - 1008.7 1008.6 0.0
28/10:00am 33.0 36.5 19.5 45 8.9 CALM 0 - 0 - 1009.1 1008.9 0.0
28/09:30am 30.5 33.9 21.0 57 6.4 SSE 4 - 2 - 1009.4 1009.2 0.0
28/09:00am 27.1 30.7 22.1 74 3.4 SSE 6 - 3 - 1009.7 1009.5 0.0
28/08:30am 23.9 26.8 21.0 84 1.9 ESE 7 - 4 - 1010.1 1009.9 0.0
28/08:00am 22.5 25.7 20.4 88 1.4 ESE 4 - 2 - 1010.2 1010.0 0.0
28/07:30am 21.6 24.2 20.1 91 1.0 W 6 - 3 - 1010.1 1009.9 0.0
28/07:00am 20.9 23.3 19.7 93 0.8 WNW 6 - 3 - 1010.2 1010.0 0.0
28/06:30am 20.4 23.5 19.6 95 0.5 ENE 2 - 1 - 1010.1 1009.9 0.0
28/06:00am 20.2 23.2 19.2 94 0.6 N 2 - 1 - 1009.9 1009.7 0.0
28/05:30am 20.1 22.9 18.8 92 0.8 NE 2 - 1 - 1009.9 1009.7 0.0
28/05:00am 20.4 23.4 19.2 93 0.8 NNW 2 - 1 - 1009.8 1009.6 0.0
28/04:30am 20.7 23.4 19.4 92 0.8 NW 4 - 2 - 1009.7 1009.5 0.0
28/04:00am 20.8 23.1 19.5 92 0.8 NNE 6 - 3 - 1009.8 1009.6 0.0
28/03:30am 20.9 24.0 19.6 92 0.8 N 2 - 1 - 1010.1 1009.9 0.0
28/03:00am 21.1 24.2 19.6 91 1.0 ENE 2 - 1 - 1010.5 1010.3 0.0
28/02:30am 21.1 24.6 19.6 91 1.0 CALM 0 - 0 - 1010.7 1010.5 0.0
28/02:00am 21.3 24.2 19.8 91 1.0 E 4 - 2 - 1011.2 1011.0 0.0
28/01:30am 21.3 24.5 19.8 91 1.0 NNE 2 - 1 - 1011.6 1011.4 0.0
28/01:00am 21.5 24.0 19.8 90 1.1 ESE 6 - 3 - 1011.9 1011.7 0.0
28/12:30am 21.4 23.9 19.9 91 1.0 E 6 - 3 - 1012.2 1012.0 0.0
28/12:00am 21.5 24.4 19.8 90 1.1 ESE 4 - 2 - 1012.6 1012.4 0.0
 
Date/Time
EDT
Temp
°C
App
Temp
°C
Dew
Point
°C
Rel
Hum
%
Delta-T
°C
Wind Press
QNH
hPa
Press
MSL
hPa
Rain since
9am
mm
Dir  Spd
km/h
Gust
km/h
Spd
kts
Gust
kts
27/11:30pm 21.5 24.2 19.4 88 1.3 ESE 4 - 2 - 1013.0 1012.8 0.0
27/11:00pm 21.7 24.2 19.8 89 1.2 E 6 - 3 - 1013.1 1012.9 0.0
27/10:30pm 21.9 24.8 19.8 88 1.3 NE 4 - 2 - 1013.3 1013.1 0.0
27/10:00pm 21.9 24.8 19.8 88 1.3 E 4 - 2 - 1013.5 1013.3 0.0
27/09:30pm 21.8 24.6 19.7 88 1.3 E 4 - 2 - 1013.6 1013.4 0.0
27/09:00pm 21.8 20.8 19.7 88 1.3 NNE 24 - 13 - 1013.4 1013.2 0.0
27/08:30pm 21.8 20.0 19.5 87 1.5 NNE 28 - 15 - 1013.3 1013.1 0.0
27/08:00pm 21.9 19.7 19.5 86 1.5 NNE 30 - 16 - 1013.2 1013.0 0.0
27/07:30pm 22.0 21.7 19.2 84 1.8 NE 19 - 10 - 1013.3 1013.1 0.0
27/07:00pm 22.6 22.4 18.6 78 2.5 NE 17 - 9 - 1013.3 1013.1 0.0
27/06:30pm 22.9 22.9 18.2 75 2.9 NE 15 - 8 - 1013.2 1013.0 0.0
27/06:00pm 23.3 22.6 18.6 75 3.0 NE 20 - 11 - 1013.1 1012.9 0.0
27/05:30pm 23.3 21.7 18.4 74 3.1 NE 24 - 13 - 1012.9 1012.7 0.0
27/05:00pm 24.0 23.0 18.9 73 3.2 NE 22 - 12 - 1013.0 1012.8 0.0
27/04:30pm 24.0 23.2 18.4 71 3.5 ENE 20 - 11 - 1013.3 1013.1 0.0
27/04:00pm 24.6 23.3 19.0 71 3.6 ENE 24 - 13 - 1013.7 1013.5 0.0
27/03:30pm 23.8 22.1 18.2 71 3.5 E 24 - 13 - 1014.0 1013.8 0.0
27/03:00pm 23.7 22.3 17.9 70 3.6 E 22 - 12 - 1014.5 1014.3 0.0
27/02:30pm 23.9 22.6 17.2 66 4.2 E 20 - 11 - 1015.1 1014.9 0.0
27/02:00pm 24.6 23.6 17.6 65 4.4 E 19 - 10 - 1015.7 1015.6 0.0
27/01:30pm 25.0 23.9 17.2 62 4.9 ESE 19 - 10 - 1016.2 1016.1 0.0

Latest Capital City Observations: Canberra | Sydney | Melbourne | Brisbane | Adelaide | Perth | Hobart | Darwin

Other formats

Comma delimited format used in spreadsheet applications
http://www.bom.gov.au/fwo/IDN60901/IDN60901.94768.axf

JavaScript Object Notation format (JSON) in row-major order
http://www.bom.gov.au/fwo/IDN60901/IDN60901.94768.json

Data quality

Most of these data are generated automatically and are frequently updated. Quality checks on data are not normally performed. It is possible for incorrect values to appear. Refer to information at About Latest Weather Observations and please check the disclaimer before using these data.